Time;durP1;ratioP1;P1;durP2;ratioP2;P2;SDS_P1;SDS_P2;PMS_P1;PMS_P2;Temp;Humidity;BMP_temperature;BMP_pressure;BME280_temperature;BME280_humidity;BME280_pressure;Samples;Min_cycle;Max_cycle;Signal;HPM_P1;HPM_P2
2022/08/13 00:01:25;;;;;;;8.65;5.50;;;21.50;99.90;;;;;;5070414;28;20837;-68
2022/08/13 00:03:55;;;;;;;10.85;6.25;;;21.50;99.90;;;;;;5071985;28;20066;-68
2022/08/13 00:06:58;;;;;;;13.20;6.00;;;21.40;99.90;;;;;;5069331;28;20017;-68
2022/08/13 00:09:13;;;;;;;11.50;5.90;;;21.40;99.90;;;;;;5069528;28;20066;-68
2022/08/13 00:14:29;;;;;;;11.95;6.07;;;21.30;99.90;;;;;;5070054;28;20097;-67
2022/08/13 00:16:55;;;;;;;12.25;6.00;;;21.30;99.90;;;;;;5071713;28;20033;-67
2022/08/13 00:19:26;;;;;;;12.57;5.82;;;21.30;99.90;;;;;;5071691;28;20489;-71
2022/08/13 00:21:53;;;;;;;8.23;5.87;;;21.20;99.90;;;;;;5072253;28;20029;-68
2022/08/13 00:24:19;;;;;;;11.75;5.78;;;21.20;99.90;;;;;;5072326;28;20028;-68
2022/08/13 00:26:44;;;;;;;13.48;6.22;;;21.20;99.90;;;;;;5071996;28;20028;-68
2022/08/13 00:29:10;;;;;;;11.43;6.13;;;21.10;99.90;;;;;;5072207;28;20020;-69
2022/08/13 00:31:37;;;;;;;11.57;6.10;;;21.10;99.90;;;;;;5069620;28;20063;-68
2022/08/13 00:34:03;;;;;;;12.63;6.45;;;21.10;99.90;;;;;;5072168;28;20106;-67
2022/08/13 00:36:31;;;;;;;12.43;6.15;;;21.10;99.90;;;;;;5072138;28;20094;-69
2022/08/13 00:38:57;;;;;;;8.85;5.97;;;21.00;99.90;;;;;;5072163;28;20021;-68
2022/08/13 00:41:38;;;;;;;11.00;6.05;;;21.00;99.90;;;;;;5069454;28;20459;-68
2022/08/13 00:44:08;;;;;;;13.45;6.60;;;21.00;99.90;;;;;;5070463;28;20012;-67
2022/08/13 00:46:36;;;;;;;13.23;6.45;;;20.90;99.90;;;;;;5070460;28;20104;-70
2022/08/13 00:49:03;;;;;;;10.45;6.60;;;20.90;99.90;;;;;;5070578;28;20439;-71
2022/08/13 00:51:29;;;;;;;10.85;6.45;;;20.90;99.90;;;;;;5072183;28;20044;-70
2022/08/13 00:53:56;;;;;;;9.70;6.32;;;20.90;99.90;;;;;;5074693;28;20534;-68
2022/08/13 00:56:22;;;;;;;12.10;7.22;;;20.90;99.90;;;;;;5075090;28;20036;-67
2022/08/13 00:58:49;;;;;;;11.07;6.35;;;20.90;99.90;;;;;;5074602;28;20056;-69
2022/08/13 01:01:15;;;;;;;14.55;7.15;;;20.90;99.90;;;;;;5072219;28;20408;-67
2022/08/13 01:03:42;;;;;;;14.27;7.15;;;20.80;99.90;;;;;;5074474;28;20048;-69
2022/08/13 01:06:09;;;;;;;13.65;6.93;;;20.80;99.90;;;;;;5075330;28;20081;-68
2022/08/13 01:08:40;;;;;;;11.85;7.15;;;20.80;99.90;;;;;;5075164;28;20051;-68
2022/08/13 01:11:16;;;;;;;13.85;7.38;;;20.80;99.90;;;;;;5075132;28;20016;-71
2022/08/13 01:13:43;;;;;;;11.15;7.10;;;20.80;99.90;;;;;;5075296;28;20521;-71
2022/08/13 01:16:13;;;;;;;13.70;7.25;;;20.70;99.90;;;;;;5073634;28;20043;-68
2022/08/13 01:18:43;;;;;;;11.88;7.03;;;20.70;99.90;;;;;;5074795;28;20025;-71
2022/08/13 01:21:15;;;;;;;13.68;7.60;;;20.70;99.90;;;;;;5074721;28;20012;-68
2022/08/13 01:23:44;;;;;;;12.82;8.05;;;20.70;99.90;;;;;;5074744;28;20052;-67
2022/08/13 01:26:11;;;;;;;11.75;7.18;;;20.60;99.90;;;;;;5074891;28;20039;-68
2022/08/13 01:28:38;;;;;;;13.38;7.30;;;20.60;99.90;;;;;;5073369;28;20115;-68
2022/08/13 01:31:06;;;;;;;13.95;8.02;;;20.60;99.90;;;;;;5074520;28;20021;-70
2022/08/13 01:33:35;;;;;;;12.32;7.90;;;20.50;99.90;;;;;;5074627;28;20021;-69
2022/08/13 01:36:06;;;;;;;15.32;7.80;;;20.50;99.90;;;;;;5074672;28;20051;-68
2022/08/13 01:38:35;;;;;;;13.27;7.68;;;20.50;99.90;;;;;;5074443;28;20029;-72
2022/08/13 01:41:02;;;;;;;12.82;7.63;;;20.40;99.90;;;;;;5074828;28;20016;-68
2022/08/13 01:43:30;;;;;;;14.15;7.90;;;20.40;99.90;;;;;;5074436;28;20032;-67
2022/08/13 01:45:59;;;;;;;13.00;8.10;;;20.40;99.90;;;;;;5074404;28;20029;-67
2022/08/13 01:51:21;;;;;;;12.02;8.20;;;20.30;99.90;;;;;;5075292;28;20035;-68
2022/08/13 01:53:49;;;;;;;16.27;7.95;;;20.30;99.90;;;;;;5075430;28;20020;-68
2022/08/13 01:56:16;;;;;;;13.90;8.07;;;20.30;99.90;;;;;;5074850;28;20107;-67
2022/08/13 01:58:43;;;;;;;13.43;8.07;;;20.20;99.90;;;;;;5075051;28;20047;-68
2022/08/13 02:01:08;;;;;;;13.73;8.38;;;20.20;99.90;;;;;;5075163;28;20450;-67
2022/08/13 02:03:34;;;;;;;12.98;8.15;;;20.20;99.90;;;;;;5075111;28;20074;-68
2022/08/13 02:06:00;;;;;;;13.20;8.00;;;20.20;99.90;;;;;;5074818;28;20454;-67
2022/08/13 02:08:26;;;;;;;13.68;7.80;;;20.20;99.90;;;;;;5075047;28;20024;-68
2022/08/13 02:10:54;;;;;;;13.77;8.32;;;20.10;99.90;;;;;;5074567;28;20016;-67
2022/08/13 02:13:29;;;;;;;13.93;8.07;;;20.10;99.90;;;;;;5074536;28;20074;-68
2022/08/13 02:15:56;;;;;;;13.20;8.35;;;20.10;99.90;;;;;;5074142;28;20024;-68
2022/08/13 02:18:24;;;;;;;13.80;8.20;;;20.00;99.90;;;;;;5075131;28;20029;-70
2022/08/13 02:20:58;;;;;;;12.32;8.45;;;20.00;99.90;;;;;;5074552;28;20091;-68
2022/08/13 02:23:27;;;;;;;12.52;7.88;;;20.00;99.90;;;;;;5074808;28;20029;-67
2022/08/13 02:25:53;;;;;;;17.80;8.40;;;19.90;99.90;;;;;;5074628;28;20031;-67
2022/08/13 02:28:19;;;;;;;15.45;9.43;;;19.90;99.90;;;;;;5074195;28;20021;-67
2022/08/13 02:30:52;;;;;;;17.17;8.50;;;19.90;99.90;;;;;;5074585;28;20050;-71
2022/08/13 02:33:17;;;;;;;;;;;19.90;99.90;;;;;;5075645;28;20087;-67
2022/08/13 02:35:43;;;;;;;14.20;8.73;;;19.80;99.90;;;;;;5073046;28;19912;-67
2022/08/13 02:38:12;;;;;;;15.57;8.07;;;19.80;99.90;;;;;;5074368;28;20530;-68
2022/08/13 02:43:24;;;;;;;18.65;10.82;;;19.80;99.90;;;;;;5074081;28;20493;-73
2022/08/13 02:45:53;;;;;;;17.20;10.82;;;19.70;99.90;;;;;;5074060;28;20020;-72
2022/08/13 02:48:19;;;;;;;17.13;10.18;;;19.70;99.90;;;;;;5073820;28;20166;-68
2022/08/13 02:50:45;;;;;;;16.15;10.25;;;19.70;99.90;;;;;;5073770;28;20083;-71
2022/08/13 02:53:13;;;;;;;16.77;10.35;;;19.70;99.90;;;;;;5073936;28;20455;-67
2022/08/13 02:55:41;;;;;;;17.70;10.55;;;19.70;99.90;;;;;;5073178;28;20024;-67
2022/08/13 02:58:07;;;;;;;15.93;9.60;;;19.70;99.90;;;;;;5052216;28;20132;-70
2022/08/13 03:00:33;;;;;;;17.85;9.98;;;19.70;99.90;;;;;;5053980;28;20029;-68
2022/08/13 03:02:59;;;;;;;18.88;10.70;;;19.70;99.90;;;;;;5053644;28;20029;-67
2022/08/13 03:05:29;;;;;;;15.35;10.38;;;19.60;99.90;;;;;;5053554;28;20025;-70
2022/08/13 03:07:54;;;;;;;20.67;11.57;;;19.70;99.90;;;;;;5053854;28;20047;-69
2022/08/13 03:10:22;;;;;;;16.40;10.30;;;19.60;99.90;;;;;;5054023;28;20017;-68
2022/08/13 03:12:55;;;;;;;16.63;10.23;;;19.60;99.90;;;;;;5054051;28;20053;-70
2022/08/13 03:15:21;;;;;;;16.90;10.18;;;19.60;99.90;;;;;;5053390;28;20443;-68
2022/08/13 03:17:47;;;;;;;15.60;10.68;;;19.60;99.90;;;;;;5053470;28;20017;-67
2022/08/13 03:20:16;;;;;;;16.83;9.90;;;19.50;99.90;;;;;;5052159;28;20025;-71
2022/08/13 03:22:57;;;;;;;16.08;9.43;;;19.50;99.90;;;;;;5053231;28;20021;-69
2022/08/13 03:25:26;;;;;;;16.25;9.55;;;19.50;99.90;;;;;;5062092;28;20042;-68
2022/08/13 03:27:53;;;;;;;14.57;9.80;;;19.50;99.90;;;;;;5071779;28;20020;-68
2022/08/13 03:30:21;;;;;;;13.60;9.57;;;19.50;99.90;;;;;;5071890;28;20016;-68
2022/08/13 03:32:47;;;;;;;14.85;10.00;;;19.40;99.90;;;;;;5072051;28;20009;-67
2022/08/13 03:35:24;;;;;;;15.25;9.93;;;19.40;99.90;;;;;;5071715;28;20095;-69
2022/08/13 03:37:53;;;;;;;16.13;9.95;;;19.40;99.90;;;;;;5071992;28;20050;-68
2022/08/13 03:40:24;;;;;;;15.10;9.57;;;19.40;99.90;;;;;;5071634;28;20443;-68
2022/08/13 03:42:51;;;;;;;16.87;9.30;;;19.40;99.90;;;;;;5072061;28;20033;-69
2022/08/13 03:45:18;;;;;;;14.18;8.65;;;19.40;99.90;;;;;;5072007;28;20016;-68
2022/08/13 03:47:45;;;;;;;13.68;9.00;;;19.40;99.90;;;;;;5071972;28;20031;-68
2022/08/13 03:50:12;;;;;;;13.27;8.38;;;19.30;99.90;;;;;;5072423;28;20020;-68
2022/08/13 03:52:38;;;;;;;19.52;9.68;;;19.30;99.90;;;;;;5072288;28;20065;-68
2022/08/13 03:55:09;;;;;;;16.80;9.52;;;19.30;99.90;;;;;;5073044;28;20032;-68
2022/08/13 03:57:40;;;;;;;12.32;8.80;;;19.30;99.90;;;;;;5072647;28;20377;-68
2022/08/13 04:00:12;;;;;;;13.52;8.52;;;19.30;99.90;;;;;;5073179;28;20036;-67
2022/08/13 04:02:41;;;;;;;18.13;8.80;;;19.30;99.90;;;;;;5072979;28;20044;-72
2022/08/13 04:05:13;;;;;;;15.52;8.85;;;19.30;99.90;;;;;;5073103;28;20103;-70
2022/08/13 04:07:39;;;;;;;18.00;9.40;;;19.30;99.90;;;;;;5072495;28;20599;-69
2022/08/13 04:10:06;;;;;;;13.88;8.60;;;19.30;99.90;;;;;;5072485;28;20020;-66
2022/08/13 04:12:32;;;;;;;12.80;8.55;;;19.30;99.90;;;;;;5072576;28;20016;-70
2022/08/13 04:14:59;;;;;;;13.57;8.90;;;19.20;99.90;;;;;;5073304;28;20096;-70
2022/08/13 04:17:24;;;;;;;16.17;9.10;;;19.20;99.90;;;;;;5072572;28;20115;-68
2022/08/13 04:19:50;;;;;;;15.10;7.80;;;19.20;99.90;;;;;;5072500;28;20100;-68
2022/08/13 04:22:15;;;;;;;13.40;8.57;;;19.20;99.90;;;;;;5072584;28;20048;-69
2022/08/13 04:24:42;;;;;;;14.57;8.13;;;19.20;99.90;;;;;;5072411;28;20016;-71
2022/08/13 04:27:07;;;;;;;14.23;8.18;;;19.20;99.90;;;;;;5072584;28;20017;-71
2022/08/13 04:29:33;;;;;;;12.82;8.15;;;19.20;99.90;;;;;;5072891;28;20031;-69
2022/08/13 04:32:03;;;;;;;13.00;7.75;;;19.20;99.90;;;;;;5073046;28;20016;-67
2022/08/13 04:34:29;;;;;;;15.27;8.10;;;19.20;99.90;;;;;;5072053;28;20346;-70
2022/08/13 04:36:56;;;;;;;11.88;7.45;;;19.20;99.90;;;;;;5072336;28;20036;-70
2022/08/13 04:39:22;;;;;;;12.85;7.63;;;19.10;99.90;;;;;;5076614;28;20028;-68
2022/08/13 04:41:48;;;;;;;14.70;8.30;;;19.10;99.90;;;;;;5076935;28;20017;-69
2022/08/13 04:44:13;;;;;;;16.65;8.23;;;19.10;99.90;;;;;;5075143;28;20419;-68
2022/08/13 04:46:39;;;;;;;15.98;8.07;;;19.10;99.90;;;;;;5077040;28;20505;-66
2022/08/13 04:49:06;;;;;;;12.52;7.10;;;19.10;99.90;;;;;;5076355;28;20362;-68
2022/08/13 04:51:34;;;;;;;12.10;7.90;;;19.10;99.90;;;;;;5076043;28;20021;-67
2022/08/13 04:54:00;;;;;;;10.32;7.20;;;19.20;99.90;;;;;;5076412;28;20024;-69
2022/08/13 04:56:26;;;;;;;13.57;7.60;;;19.10;99.90;;;;;;5076184;28;20029;-67
2022/08/13 04:58:52;;;;;;;12.88;7.50;;;19.20;99.90;;;;;;5076270;28;20037;-67
2022/08/13 05:01:18;;;;;;;12.48;7.50;;;19.20;99.90;;;;;;5076014;28;20020;-74
2022/08/13 05:03:45;;;;;;;11.82;6.97;;;19.20;99.90;;;;;;5076548;28;20442;-69
2022/08/13 05:06:19;;;;;;;11.50;7.10;;;19.30;99.90;;;;;;5076552;28;20032;-66
2022/08/13 05:08:45;;;;;;;11.23;6.22;;;19.30;99.90;;;;;;5076408;28;20024;-67
2022/08/13 05:11:12;;;;;;;8.52;5.28;;;19.30;99.90;;;;;;5076540;28;20032;-69
2022/08/13 05:13:39;;;;;;;9.32;5.45;;;19.40;99.90;;;;;;5076483;28;20443;-72
2022/08/13 05:16:08;;;;;;;11.55;5.47;;;19.40;99.90;;;;;;5075858;28;20132;-67
2022/08/13 05:18:37;;;;;;;10.35;5.47;;;19.50;99.90;;;;;;5076385;28;20021;-68
2022/08/13 05:21:05;;;;;;;11.55;5.68;;;19.60;99.90;;;;;;5076087;28;20020;-67
2022/08/13 05:23:32;;;;;;;9.82;4.85;;;19.60;99.90;;;;;;5075796;28;20025;-68
2022/08/13 05:25:59;;;;;;;14.02;5.07;;;19.70;99.90;;;;;;5076200;28;20071;-66
2022/08/13 05:28:25;;;;;;;11.57;4.65;;;19.80;99.90;;;;;;5075014;28;20016;-68
2022/08/13 05:30:51;;;;;;;6.97;4.40;;;19.90;99.90;;;;;;5075930;28;20480;-69
2022/08/13 05:33:20;;;;;;;7.85;4.03;;;19.90;99.90;;;;;;5075903;28;20020;-69
2022/08/13 05:35:49;;;;;;;14.35;4.07;;;20.00;99.90;;;;;;5075893;28;20131;-71
2022/08/13 05:38:16;;;;;;;9.40;3.80;;;20.10;99.90;;;;;;5075731;28;20027;-68
2022/08/13 05:40:43;;;;;;;8.32;3.55;;;20.20;99.90;;;;;;5075990;28;20024;-68
2022/08/13 05:43:14;;;;;;;7.70;3.83;;;20.30;99.90;;;;;;5075858;28;20021;-70
2022/08/13 05:45:47;;;;;;;6.38;3.50;;;20.40;99.90;;;;;;5075935;28;20028;-69
2022/08/13 05:48:13;;;;;;;8.23;3.20;;;20.50;99.90;;;;;;5075817;28;20098;-71
2022/08/13 05:50:38;;;;;;;9.82;3.67;;;20.60;99.90;;;;;;5075768;28;20063;-68
2022/08/13 05:53:07;;;;;;;7.55;3.08;;;20.70;99.90;;;;;;5075833;28;20146;-68
2022/08/13 05:55:34;;;;;;;7.88;3.28;;;20.80;99.90;;;;;;5075311;28;20595;-70
2022/08/13 05:58:00;;;;;;;7.00;3.13;;;20.90;99.90;;;;;;5075268;28;20124;-69
2022/08/13 06:03:25;;;;;;;7.75;3.05;;;21.10;99.90;;;;;;5075345;28;20476;-67
2022/08/13 06:05:56;;;;;;;6.85;3.42;;;21.30;99.90;;;;;;5075384;28;20476;-71
2022/08/13 06:08:29;;;;;;;6.60;3.80;;;21.40;99.90;;;;;;5075016;28;20016;-67
2022/08/13 06:10:57;;;;;;;7.70;3.63;;;21.60;99.90;;;;;;5075254;28;20024;-68
2022/08/13 06:13:23;;;;;;;7.80;3.40;;;21.70;99.90;;;;;;5075073;28;20024;-69
2022/08/13 06:15:58;;;;;;;10.80;3.10;;;21.90;99.90;;;;;;5075451;28;20346;-70
2022/08/13 06:18:35;;;;;;;5.65;2.65;;;22.00;99.40;;;;;;5075562;28;20033;-70
2022/08/13 06:21:03;;;;;;;5.68;2.80;;;22.20;99.00;;;;;;5075101;28;20025;-67
2022/08/13 06:23:31;;;;;;;6.93;2.67;;;22.40;98.30;;;;;;5074831;28;20374;-70
2022/08/13 06:25:58;;;;;;;7.93;2.92;;;22.70;98.00;;;;;;5075128;28;20078;-68
2022/08/13 06:28:28;;;;;;;9.32;3.00;;;22.90;96.90;;;;;;5075017;28;20362;-66
2022/08/13 06:30:58;;;;;;;6.97;2.90;;;23.20;96.30;;;;;;5074944;28;20031;-67
2022/08/13 06:33:26;;;;;;;5.07;2.70;;;23.70;95.50;;;;;;5075203;28;20454;-70
2022/08/13 06:35:55;;;;;;;5.57;2.42;;;24.40;94.30;;;;;;5075164;28;20036;-66
2022/08/13 06:38:25;;;;;;;7.47;2.90;;;25.10;92.80;;;;;;5075100;28;20020;-67
2022/08/13 06:40:52;;;;;;;5.60;2.55;;;25.90;92.00;;;;;;5075084;28;20020;-69
2022/08/13 06:43:19;;;;;;;4.88;2.70;;;26.80;91.10;;;;;;5074929;28;20056;-71
2022/08/13 06:45:46;;;;;;;6.05;2.45;;;27.70;89.60;;;;;;5074395;28;20021;-67
2022/08/13 06:48:12;;;;;;;4.82;2.50;;;28.60;87.20;;;;;;5074914;28;20202;-68
2022/08/13 06:50:38;;;;;;;6.50;2.53;;;29.50;85.10;;;;;;5075089;28;20027;-68
2022/08/13 06:53:08;;;;;;;3.65;2.70;;;30.40;83.40;;;;;;5074833;28;20099;-68
2022/08/13 06:55:39;;;;;;;5.35;2.33;;;31.30;80.00;;;;;;5073189;28;21470;-68
2022/08/13 06:58:11;;;;;;;4.30;2.17;;;31.90;76.90;;;;;;5071210;28;20089;-67
2022/08/13 07:00:38;;;;;;;7.07;2.10;;;32.60;74.80;;;;;;5073576;28;20047;-68
2022/08/13 07:03:07;;;;;;;6.50;2.40;;;33.20;73.10;;;;;;5074502;28;20020;-70
2022/08/13 07:05:38;;;;;;;7.22;2.10;;;33.80;71.20;;;;;;5074196;28;20025;-69
2022/08/13 07:08:09;;;;;;;5.20;2.42;;;34.30;70.60;;;;;;5073545;28;20039;-69
2022/08/13 07:10:36;;;;;;;5.13;2.27;;;34.80;68.40;;;;;;5070460;28;20093;-70
2022/08/13 07:13:05;;;;;;;5.72;2.25;;;35.20;67.10;;;;;;5073417;28;20090;-67
2022/08/13 07:15:33;;;;;;;2.63;2.03;;;35.40;64.90;;;;;;5070801;28;20024;-70
2022/08/13 07:17:59;;;;;;;4.78;1.88;;;35.40;64.10;;;;;;5073611;28;20024;-68
2022/08/13 07:20:25;;;;;;;5.35;2.15;;;35.30;63.50;;;;;;5073748;28;20035;-67
2022/08/13 07:22:54;;;;;;;8.73;2.30;;;35.30;62.90;;;;;;5073823;28;20024;-70
2022/08/13 07:25:23;;;;;;;4.47;2.20;;;34.90;63.10;;;;;;5072890;28;20511;-67
2022/08/13 07:27:51;;;;;;;4.40;1.80;;;34.70;64.20;;;;;;5073658;28;20029;-70
2022/08/13 07:30:18;;;;;;;9.18;2.53;;;34.40;64.20;;;;;;5073849;28;20025;-68
2022/08/13 07:32:43;;;;;;;7.18;2.25;;;33.80;63.20;;;;;;5073844;28;20082;-68
2022/08/13 07:35:10;;;;;;;3.33;1.95;;;33.20;63.40;;;;;;5073671;28;20354;-68
2022/08/13 07:37:36;;;;;;;4.50;2.03;;;32.60;64.40;;;;;;5073243;28;20082;-67
2022/08/13 07:40:04;;;;;;;5.10;2.22;;;32.00;65.10;;;;;;5070370;28;20188;-71
2022/08/13 07:42:34;;;;;;;4.05;2.00;;;31.40;65.90;;;;;;5073383;28;20048;-68
2022/08/13 07:44:59;;;;;;;6.53;2.20;;;30.90;66.10;;;;;;5073309;28;20078;-68
2022/08/13 07:47:26;;;;;;;2.58;1.92;;;30.60;66.20;;;;;;5073224;28;20017;-70
2022/08/13 07:49:54;;;;;;;3.55;1.85;;;30.30;65.90;;;;;;5072982;28;20031;-70
2022/08/13 07:52:19;;;;;;;8.30;1.92;;;30.10;66.90;;;;;;5073295;28;20017;-68
2022/08/13 07:54:47;;;;;;;3.60;1.73;;;30.10;67.80;;;;;;5073287;28;20024;-70
2022/08/13 07:57:13;;;;;;;2.95;1.65;;;30.30;68.10;;;;;;5072269;28;20109;-68
2022/08/13 07:59:38;;;;;;;6.63;1.70;;;30.60;67.00;;;;;;5071630;28;20446;-69
2022/08/13 08:02:07;;;;;;;6.53;1.88;;;31.00;66.60;;;;;;5073244;28;20104;-70
2022/08/13 08:04:35;;;;;;;3.65;1.80;;;31.30;64.70;;;;;;5073463;28;20028;-69
2022/08/13 08:07:02;;;;;;;5.90;1.80;;;31.60;64.10;;;;;;5073172;28;20438;-68
2022/08/13 08:09:31;;;;;;;8.13;3.45;;;32.20;63.40;;;;;;5073054;28;20020;-69
2022/08/13 08:14:50;;;;;;;5.40;2.00;;;33.40;61.00;;;;;;5072775;28;20063;-70
2022/08/13 08:17:17;;;;;;;2.10;1.70;;;34.10;60.20;;;;;;5071560;28;20126;-69
2022/08/13 08:19:44;;;;;;;3.45;1.90;;;34.90;60.00;;;;;;5072947;28;20028;-71
2022/08/13 08:22:13;;;;;;;2.67;1.77;;;35.80;58.60;;;;;;5072514;28;20074;-69
2022/08/13 08:24:39;;;;;;;4.63;1.80;;;36.80;57.60;;;;;;5071250;28;20483;-67
2022/08/13 08:27:08;;;;;;;3.55;1.60;;;37.70;56.60;;;;;;5072435;28;20020;-68
2022/08/13 08:29:34;;;;;;;3.60;1.60;;;38.80;55.30;;;;;;5072622;28;20028;-69
2022/08/13 08:32:04;;;;;;;4.65;1.95;;;39.50;54.00;;;;;;5072996;28;20016;-68
2022/08/13 08:34:30;;;;;;;5.82;2.20;;;40.30;52.60;;;;;;5072430;28;20028;-68
2022/08/13 08:36:56;;;;;;;2.40;1.85;;;41.00;51.90;;;;;;5072866;28;20043;-68
2022/08/13 08:44:59;;;;;;;3.95;1.90;;;42.40;49.80;;;;;;5062626;28;20031;-71
2022/08/13 08:47:32;;;;;;;2.13;1.77;;;42.70;49.60;;;;;;5063525;28;20461;-70
2022/08/13 08:49:59;;;;;;;5.88;1.80;;;43.10;48.80;;;;;;5072732;28;20027;-71
2022/08/13 08:55:16;;;;;;;2.38;1.73;;;43.80;47.60;;;;;;5072262;28;20029;-70
2022/08/13 08:57:44;;;;;;;2.78;1.40;;;44.00;46.30;;;;;;5072064;28;20191;-70
2022/08/13 09:00:15;;;;;;;6.05;1.60;;;44.00;46.10;;;;;;5072546;28;20173;-71
2022/08/13 09:02:41;;;;;;;2.72;2.00;;;44.20;45.60;;;;;;5072523;28;20023;-68
2022/08/13 09:05:12;;;;;;;2.47;1.63;;;44.40;45.20;;;;;;5072510;28;20042;-68
2022/08/13 09:07:41;;;;;;;5.45;1.63;;;44.60;44.60;;;;;;5072103;28;20522;-71
2022/08/13 09:10:09;;;;;;;3.40;1.60;;;44.60;44.00;;;;;;5054485;28;20017;-67
2022/08/13 09:12:40;;;;;;;3.85;1.60;;;44.60;43.80;;;;;;5072408;28;20020;-70
2022/08/13 09:15:06;;;;;;;3.58;1.55;;;44.50;44.00;;;;;;5072656;28;20442;-66
2022/08/13 09:17:33;;;;;;;4.45;1.67;;;44.60;44.10;;;;;;5065717;28;20048;-68
2022/08/13 09:19:58;;;;;;;4.78;1.58;;;44.90;43.90;;;;;;5056773;28;20024;-71
2022/08/13 09:22:24;;;;;;;6.47;1.80;;;45.30;43.50;;;;;;5072684;28;20028;-68
2022/08/13 09:24:52;;;;;;;7.93;1.92;;;45.30;43.50;;;;;;5074859;28;20016;-68
2022/08/13 09:27:19;;;;;;;5.00;1.65;;;45.20;43.60;;;;;;5076444;28;20074;-68
2022/08/13 09:29:45;;;;;;;4.30;1.92;;;45.40;43.50;;;;;;5075815;28;20029;-68
2022/08/13 09:32:14;;;;;;;4.70;1.90;;;45.70;43.40;;;;;;5075982;28;20059;-68
2022/08/13 09:34:43;;;;;;;2.95;1.73;;;45.80;43.30;;;;;;5055626;28;20534;-69
2022/08/13 09:37:10;;;;;;;4.85;2.08;;;45.70;42.60;;;;;;5055454;28;20410;-68
2022/08/13 09:39:36;;;;;;;4.03;1.63;;;45.40;42.40;;;;;;5056093;28;20031;-70
2022/08/13 09:42:32;;;;;;;3.78;1.70;;;45.20;42.20;;;;;;5055937;28;20427;-67
2022/08/13 09:45:00;;;;;;;1.65;1.55;;;45.00;42.00;;;;;;5056242;28;20032;-68
2022/08/13 09:47:27;;;;;;;3.78;1.42;;;44.90;41.40;;;;;;5057714;28;20123;-68
2022/08/13 09:49:52;;;;;;;3.50;1.40;;;44.70;41.10;;;;;;5063604;28;20016;-70
2022/08/13 09:52:22;;;;;;;1.77;1.50;;;44.40;41.30;;;;;;5076003;28;20020;-68
2022/08/13 09:54:49;;;;;;;3.58;1.58;;;44.20;41.60;;;;;;5075560;28;20361;-69
2022/08/13 09:57:14;;;;;;;5.20;1.77;;;44.10;41.60;;;;;;5075595;28;20063;-68
2022/08/13 09:59:41;;;;;;;3.42;1.42;;;44.30;41.50;;;;;;5075422;28;20450;-67
2022/08/13 10:02:12;;;;;;;3.08;1.38;;;44.30;41.50;;;;;;5075559;28;20027;-70
2022/08/13 10:04:38;;;;;;;;;;;44.30;40.80;;;;;;5075466;28;20021;-67
2022/08/13 10:07:06;;;;;;;5.03;1.88;;;44.40;41.20;;;;;;5074203;28;19904;-68
2022/08/13 10:09:33;;;;;;;2.35;1.52;;;44.40;40.80;;;;;;5075313;28;20016;-68
2022/08/13 10:12:00;;;;;;;6.00;1.70;;;44.20;40.30;;;;;;5075245;28;20130;-71
2022/08/13 10:14:26;;;;;;;2.00;1.27;;;43.90;40.90;;;;;;5075365;28;20033;-68
2022/08/13 10:16:53;;;;;;;2.38;1.67;;;43.80;41.20;;;;;;5075156;28;20045;-68
2022/08/13 10:19:18;;;;;;;1.95;1.35;;;44.10;41.30;;;;;;5073499;28;20023;-69
2022/08/13 10:21:44;;;;;;;2.15;1.30;;;44.20;40.20;;;;;;5074747;28;20099;-68
2022/08/13 10:24:10;;;;;;;4.93;1.65;;;44.30;40.40;;;;;;5074541;28;20048;-68
2022/08/13 10:26:40;;;;;;;6.50;1.40;;;44.30;40.00;;;;;;5074242;28;20020;-68
2022/08/13 10:29:08;;;;;;;3.87;1.40;;;44.20;40.30;;;;;;5074837;28;20066;-70
2022/08/13 10:31:34;;;;;;;4.25;1.35;;;44.10;40.20;;;;;;5072024;28;20070;-70
2022/08/13 10:33:59;;;;;;;3.03;1.25;;;44.10;40.30;;;;;;5073060;28;20419;-68
2022/08/13 10:36:26;;;;;;;2.63;1.50;;;44.20;40.20;;;;;;5073454;28;20021;-68
2022/08/13 10:38:51;;;;;;;2.83;1.40;;;44.10;40.10;;;;;;5074567;28;20051;-69
2022/08/13 10:41:17;;;;;;;3.35;1.20;;;44.00;39.60;;;;;;5074113;28;20353;-71
2022/08/13 10:43:43;;;;;;;1.30;1.20;;;43.80;40.10;;;;;;5074465;28;20021;-69
2022/08/13 10:46:16;;;;;;;3.25;1.60;;;43.90;40.20;;;;;;5074381;28;20064;-69
2022/08/13 10:48:42;;;;;;;4.60;1.52;;;44.00;39.80;;;;;;5074277;28;20360;-68
2022/08/13 10:51:08;;;;;;;5.70;2.80;;;44.00;40.10;;;;;;5074261;28;20351;-70
2022/08/13 10:56:17;;;;;;;5.03;1.48;;;44.50;39.80;;;;;;5074289;28;20047;-69
2022/08/13 10:58:44;;;;;;;6.35;1.67;;;44.90;39.90;;;;;;5074297;28;20052;-68
2022/08/13 11:01:10;;;;;;;3.35;1.33;;;44.90;39.50;;;;;;5074195;28;20032;-68
2022/08/13 11:03:37;;;;;;;3.70;1.38;;;45.20;39.50;;;;;;5074004;28;20077;-69
2022/08/13 11:06:06;;;;;;;2.63;1.10;;;45.20;40.10;;;;;;5074323;28;20024;-66
2022/08/13 11:08:37;;;;;;;3.35;1.20;;;45.30;38.80;;;;;;5074144;28;20020;-67
2022/08/13 11:11:08;;;;;;;3.35;1.50;;;45.40;39.00;;;;;;5073899;28;20147;-68
2022/08/13 11:13:39;;;;;;;3.05;1.20;;;45.50;38.70;;;;;;5074228;28;20025;-68
2022/08/13 11:16:30;;;;;;;3.65;1.30;;;45.30;38.60;;;;;;5074283;28;20043;-67
2022/08/13 11:18:54;;;;;;;5.68;1.33;;;45.10;38.20;;;;;;5073693;28;20416;-67
2022/08/13 11:21:20;;;;;;;5.20;1.52;;;45.00;38.50;;;;;;5074266;28;20020;-68
2022/08/13 11:23:45;;;;;;;3.78;1.38;;;45.20;39.00;;;;;;5073960;28;20024;-69
2022/08/13 11:26:11;;;;;;;4.28;1.73;;;45.30;38.70;;;;;;5073880;28;20107;-66
2022/08/13 11:28:36;;;;;;;5.60;1.70;;;45.40;38.70;;;;;;5074025;28;20107;-70
2022/08/13 11:31:02;;;;;;;1.30;1.20;;;45.60;39.30;;;;;;5074024;28;20052;-67
2022/08/13 11:33:27;;;;;;;3.28;1.65;;;45.70;39.40;;;;;;5073770;28;20035;-68
2022/08/13 11:35:53;;;;;;;2.30;1.50;;;45.70;38.50;;;;;;5073743;28;20051;-67
2022/08/13 11:38:20;;;;;;;1.63;1.35;;;45.60;38.00;;;;;;5074233;28;20024;-68
2022/08/13 11:40:55;;;;;;;3.35;1.52;;;45.30;37.90;;;;;;5073937;28;20086;-70
2022/08/13 11:43:25;;;;;;;2.42;1.13;;;45.00;38.00;;;;;;5073904;28;20095;-68
2022/08/13 11:45:50;;;;;;;;;;;45.00;38.50;;;;;;5073889;28;20062;-68
2022/08/13 11:48:18;;;;;;;1.92;1.30;;;45.30;38.90;;;;;;5072030;28;19954;-71
2022/08/13 11:50:43;;;;;;;3.88;1.40;;;45.40;38.80;;;;;;5073660;28;20055;-67
2022/08/13 11:53:10;;;;;;;3.53;1.20;;;45.40;38.30;;;;;;5073154;28;20157;-67
2022/08/13 11:55:36;;;;;;;3.15;1.23;;;45.20;38.70;;;;;;5071259;28;20020;-67
2022/08/13 11:58:05;;;;;;;2.60;1.33;;;45.40;38.30;;;;;;5055637;28;20056;-67
2022/08/13 12:00:31;;;;;;;1.20;1.10;;;45.50;38.10;;;;;;5072802;28;20461;-67
2022/08/13 12:02:57;;;;;;;3.42;1.05;;;45.60;37.40;;;;;;5073127;28;20020;-67
2022/08/13 12:05:22;;;;;;;1.98;1.27;;;45.50;37.60;;;;;;5073229;28;20077;-70
2022/08/13 12:07:48;;;;;;;2.60;1.00;;;45.60;37.20;;;;;;5073475;28;20025;-68
2022/08/13 12:10:14;;;;;;;3.78;1.35;;;45.90;37.10;;;;;;5072590;28;20077;-66
2022/08/13 12:12:40;;;;;;;3.38;1.30;;;46.10;37.30;;;;;;5073356;28;20024;-69
2022/08/13 12:15:07;;;;;;;5.38;1.15;;;46.20;37.40;;;;;;5072733;28;20025;-67
2022/08/13 12:17:32;;;;;;;2.22;1.10;;;46.30;37.20;;;;;;5073175;28;20040;-68
2022/08/13 12:19:58;;;;;;;2.35;1.20;;;46.30;37.00;;;;;;5073107;28;20017;-69
2022/08/13 12:22:23;;;;;;;1.85;1.00;;;46.30;37.10;;;;;;5073275;28;20403;-70
2022/08/13 12:24:50;;;;;;;2.55;1.20;;;46.20;36.90;;;;;;5072934;28;20024;-67
2022/08/13 12:27:15;;;;;;;4.03;1.20;;;46.00;37.20;;;;;;5070810;28;20016;-67
2022/08/13 12:29:41;;;;;;;2.30;1.27;;;46.10;36.70;;;;;;5061792;28;20060;-67
2022/08/13 12:32:06;;;;;;;3.78;1.23;;;46.10;37.00;;;;;;5072787;28;20112;-68
2022/08/13 12:34:32;;;;;;;1.42;1.05;;;46.40;37.40;;;;;;5072831;28;20021;-68
2022/08/13 12:36:57;;;;;;;2.28;1.40;;;46.50;37.40;;;;;;5065182;28;20021;-69
2022/08/13 12:39:23;;;;;;;3.80;1.30;;;46.40;37.80;;;;;;5071725;28;20036;-69
2022/08/13 12:41:48;;;;;;;3.20;1.42;;;46.30;37.80;;;;;;5071628;28;20439;-68
2022/08/13 12:44:14;;;;;;;2.15;1.35;;;46.30;38.00;;;;;;5070927;28;20111;-67
2022/08/13 12:46:39;;;;;;;4.47;2.38;;;46.10;37.80;;;;;;5071280;28;20021;-67
2022/08/13 12:49:06;;;;;;;1.95;1.30;;;45.80;38.00;;;;;;5076589;28;20016;-67
2022/08/13 12:51:31;;;;;;;2.15;1.45;;;45.40;37.80;;;;;;5074274;28;20017;-67
2022/08/13 12:53:57;;;;;;;2.75;1.20;;;44.90;38.30;;;;;;5071557;28;20081;-67
2022/08/13 12:56:23;;;;;;;1.20;1.10;;;44.60;38.70;;;;;;5071580;28;20016;-70
2022/08/13 12:58:48;;;;;;;1.40;1.30;;;44.30;38.50;;;;;;5072120;28;20102;-67
2022/08/13 13:01:14;;;;;;;2.22;1.92;;;43.70;38.80;;;;;;5075061;28;20067;-68
2022/08/13 13:03:39;;;;;;;2.67;1.50;;;43.00;39.40;;;;;;5075232;28;20056;-67
2022/08/13 13:06:05;;;;;;;2.63;1.65;;;42.30;40.00;;;;;;5073726;28;20416;-68
2022/08/13 13:08:32;;;;;;;4.07;1.63;;;41.70;40.50;;;;;;5075062;28;20048;-67
2022/08/13 13:11:02;;;;;;;3.78;1.90;;;41.20;41.00;;;;;;5074987;28;20016;-68